TAF KCAE
AMD KCAE 080252Z 0803/0824 08005KT P6SM BKN025 FM080700 VRB03KT P6SM VCSH SCT007 OVC015 FM081000 VRB04KT 3SM -RA BR OVC007 FM081600 30005KT P6SM BKN007 FM082000 32007KT P6SM BKN015=
METAR KCAE
WC KCAE
WS KCAE
WV KCAE